Norbank — PGIS — position and weather

sailwx.info

Track history (hours):
 
Tides and Currents Weather Stations Pressure Air Temp Water Temp Dewpoint Dewpoint Depression Visibility Wind Speed Wind Dir Waves Ship Positions

Norbank

Operator: P & O Ferries

Last reported at 2016-Aug-24 22:33 UTC. Time now 2016-Aug-24 23:13 UTC.
Position N 53°28' W 005°27'.

Length 167 m; draft 5.8 m.

Type: Ship (hazmat cat A). MMSI: 246213000.

Date/timePositionNaut miles runAvg speedWind from/ knotsBaromVisibWave heightAir tempDewpointWater temp
2016-Aug-24 22:33N 53°28' W 005°27'7 0.9
2016-Aug-24 14:32N 53°28' W 005°15'1818.1
2016-Aug-24 13:33N 53°32' W 004°45'1716.6
2016-Aug-24 12:30N 53°33' W 004°16'1717.1
2016-Aug-24 11:31N 53°33' W 003°48'1718.0
2016-Aug-24 10:33N 53°32' W 003°19'1211.5
2016-Aug-24 09:33N 53°27' W 003°01'0 0.4
2016-Aug-24 08:33N 53°27' W 003°01'0 0.0
2016-Aug-24 07:32N 53°27' W 003°01'0 0.0
2016-Aug-24 06:29N 53°27' W 003°01'0 0.0
2016-Aug-24 04:31N 53°27' W 003°01'1 0.6
2016-Aug-24 03:33N 53°27' W 003°02'1413.8
2016-Aug-24 02:33N 53°31' W 003°24'1717.3
2016-Aug-24 01:33N 53°32' W 003°53'8 0.6
2016-Aug-23 11:33N 53°33' W 003°39'1818.0
2016-Aug-23 10:33N 53°32' W 003°09'7 6.7
2016-Aug-23 09:33N 53°27' W 003°01'0 0.4
2016-Aug-23 08:33N 53°27' W 003°01'0 0.0
2016-Aug-23 07:29N 53°27' W 003°01'0 0.0
2016-Aug-23 06:32N 53°27' W 003°01'0 0.0
2016-Aug-23 05:31N 53°27' W 003°01'0 0.0
2016-Aug-23 04:28N 53°27' W 003°01'1 1.6
2016-Aug-23 03:33N 53°28' W 003°03'1615.9
2016-Aug-23 02:33N 53°31' W 003°29'1717.0
2016-Aug-23 01:33N 53°33' W 003°58'10 0.4
2016-Aug-21 22:33N 53°33' W 003°41'1716.6
2016-Aug-21 21:34N 53°31' W 003°13'8 8.3
2016-Aug-21 20:33N 53°27' W 003°01'0 0.4
2016-Aug-21 19:27N 53°27' W 003°01'0 0.0
2016-Aug-21 18:27N 53°27' W 003°01'0 0.0
2016-Aug-21 17:32N 53°27' W 003°01'0 0.0
2016-Aug-21 16:32N 53°27' W 003°01'0 0.0
2016-Aug-21 15:31N 53°27' W 003°01'0 0.0
2016-Aug-21 14:31N 53°27' W 003°01'0 0.0
2016-Aug-21 13:33N 53°27' W 003°01'0 0.0
2016-Aug-21 12:33N 53°27' W 003°01'0 0.0
2016-Aug-21 11:30N 53°27' W 003°01'0 0.0
2016-Aug-21 10:32N 53°27' W 003°01'0 0.0
2016-Aug-21 09:32N 53°27' W 003°01'0 0.0
2016-Aug-21 08:31N 53°27' W 003°01'0 0.0
2016-Aug-21 07:31N 53°27' W 003°01'0 0.0
2016-Aug-21 06:33N 53°27' W 003°01'0 0.0
2016-Aug-21 05:33N 53°27' W 003°01'0 0.5
2016-Aug-21 04:33N 53°27' W 003°01'9 8.9
2016-Aug-21 03:33N 53°31' W 003°14'1817.9
2016-Aug-21 02:33N 53°32' W 003°45'8 0.5
2016-Aug-20 11:33N 53°33' W 003°32'1716.8
2016-Aug-20 10:33N 53°29' W 003°04'2 2.2
2016-Aug-20 09:32N 53°27' W 003°01'0 0.0
2016-Aug-20 08:32N 53°27' W 003°01'0 0.0
2016-Aug-20 07:31N 53°27' W 003°01'0 0.0
2016-Aug-20 06:31N 53°27' W 003°01'0 0.0
2016-Aug-20 05:28N 53°27' W 003°01'0 0.5
2016-Aug-20 04:33N 53°27' W 003°01'8 8.2
2016-Aug-20 03:33N 53°31' W 003°13'1615.6
2016-Aug-20 02:33N 53°31' W 003°39'1515.1
2016-Aug-20 01:33N 53°32' W 004°05'6 0.5
2016-Aug-19 11:32N 53°34' W 003°55'1616.5
2016-Aug-19 10:33N 53°33' W 003°27'1514.6
2016-Aug-19 09:33N 53°28' W 003°04'2 1.8
2016-Aug-19 08:31N 53°27' W 003°01'0 0.0
2016-Aug-19 07:27N 53°27' W 003°01'0 0.0
2016-Aug-19 06:33N 53°27' W 003°01'0 0.0
2016-Aug-19 05:32N 53°27' W 003°01'0 0.0
2016-Aug-19 04:32N 53°27' W 003°01'1 0.6
2016-Aug-19 03:33N 53°27' W 003°01'1312.8
2016-Aug-19 02:33N 53°31' W 003°21'1716.9
2016-Aug-19 01:33N 53°32' W 003°50'2 0.2
2016-Aug-18 11:15N 53°33' W 003°46'1217.3
2016-Aug-18 10:33N 53°32' W 003°26'1615.7
2016-Aug-18 09:33N 53°27' W 003°01'1 0.7
2016-Aug-18 08:31N 53°27' W 003°01'0 0.0
2016-Aug-18 07:27N 53°27' W 003°01'0 0.0
2016-Aug-18 06:33N 53°27' W 003°01'0 0.0
2016-Aug-18 05:32N 53°27' W 003°01'0 0.0
2016-Aug-18 04:32N 53°27' W 003°01'1 0.5
2016-Aug-18 03:33N 53°27' W 003°01'1413.6
2016-Aug-18 02:33N 53°31' W 003°23'1817.5
2016-Aug-18 01:33N 53°32' W 003°52'2617.2
2016-Aug-18 00:03N 53°35' W 004°35'34 2.8
2016-Aug-17 11:33N 53°33' W 003°38'1919.0
2016-Aug-17 10:33N 53°30' W 003°06'5 4.7
2016-Aug-17 09:33N 53°27' W 003°00'1 0.9
2016-Aug-17 08:31N 53°27' W 003°01'0 0.0
2016-Aug-17 07:31N 53°27' W 003°01'0 0.0
2016-Aug-17 06:33N 53°27' W 003°01'0 0.0
2016-Aug-17 05:33N 53°27' W 003°01'0 0.0
2016-Aug-17 04:33N 53°27' W 003°01'1 0.9
2016-Aug-17 03:33N 53°28' W 003°02'1211.9
2016-Aug-17 02:33N 53°31' W 003°21'1716.6
2016-Aug-17 01:33N 53°32' W 003°49'1615.5
2016-Aug-17 00:33N 53°34' W 004°15'23 2.0
2016-Aug-16 13:09N 53°31' W 004°54'1017.0
2016-Aug-16 12:33N 53°33' W 004°38'1917.3
2016-Aug-16 11:26N 53°33' W 004°05'1618.0
2016-Aug-16 10:33N 53°33' W 003°39'1817.5
2016-Aug-16 09:33N 53°32' W 003°09'6 6.5
2016-Aug-16 08:33N 53°27' W 003°01'0 0.0
2016-Aug-16 07:32N 53°27' W 003°01'0 0.0
2016-Aug-16 04:33N 53°27' W 003°01'1 0.6
2016-Aug-16 03:33N 53°27' W 003°01'1211.8
2016-Aug-16 02:33N 53°31' W 003°19'1817.9
2016-Aug-16 01:33N 53°32' W 003°50'1717.4
2016-Aug-16 00:33N 53°35' W 004°18'18 0.8
2016-Aug-15 00:32N 53°32' W 004°49'  
Track history (hours):
 
Tides and Currents Weather Stations Pressure Air Temp Water Temp Dewpoint Dewpoint Depression Visibility Wind Speed Wind Dir Waves Ship Positions

Norbank

Operator: P & O Ferries

Last reported at 2016-Aug-24 22:33 UTC. Time now 2016-Aug-24 23:13 UTC.
Position N 53°28' W 005°27'.

Length 167 m; draft 5.8 m.

Type: Ship (hazmat cat A). MMSI: 246213000.

Date/timePositionNaut miles runAvg speedWind from/ knotsBaromVisibWave heightAir tempDewpointWater temp
2016-Aug-24 22:33N 53°28' W 005°27'7 0.9
2016-Aug-24 14:32N 53°28' W 005°15'1818.1
2016-Aug-24 13:33N 53°32' W 004°45'1716.6
2016-Aug-24 12:30N 53°33' W 004°16'1717.1
2016-Aug-24 11:31N 53°33' W 003°48'1718.0
2016-Aug-24 10:33N 53°32' W 003°19'1211.5
2016-Aug-24 09:33N 53°27' W 003°01'0 0.4
2016-Aug-24 08:33N 53°27' W 003°01'0 0.0
2016-Aug-24 07:32N 53°27' W 003°01'0 0.0
2016-Aug-24 06:29N 53°27' W 003°01'0 0.0
2016-Aug-24 04:31N 53°27' W 003°01'1 0.6
2016-Aug-24 03:33N 53°27' W 003°02'1413.8
2016-Aug-24 02:33N 53°31' W 003°24'1717.3
2016-Aug-24 01:33N 53°32' W 003°53'8 0.6
2016-Aug-23 11:33N 53°33' W 003°39'1818.0
2016-Aug-23 10:33N 53°32' W 003°09'7 6.7
2016-Aug-23 09:33N 53°27' W 003°01'0 0.4
2016-Aug-23 08:33N 53°27' W 003°01'0 0.0
2016-Aug-23 07:29N 53°27' W 003°01'0 0.0
2016-Aug-23 06:32N 53°27' W 003°01'0 0.0
2016-Aug-23 05:31N 53°27' W 003°01'0 0.0
2016-Aug-23 04:28N 53°27' W 003°01'1 1.6
2016-Aug-23 03:33N 53°28' W 003°03'1615.9
2016-Aug-23 02:33N 53°31' W 003°29'1717.0
2016-Aug-23 01:33N 53°33' W 003°58'10 0.4
2016-Aug-21 22:33N 53°33' W 003°41'1716.6
2016-Aug-21 21:34N 53°31' W 003°13'8 8.3
2016-Aug-21 20:33N 53°27' W 003°01'0 0.4
2016-Aug-21 19:27N 53°27' W 003°01'0 0.0
2016-Aug-21 18:27N 53°27' W 003°01'0 0.0
2016-Aug-21 17:32N 53°27' W 003°01'0 0.0
2016-Aug-21 16:32N 53°27' W 003°01'0 0.0
2016-Aug-21 15:31N 53°27' W 003°01'0 0.0
2016-Aug-21 14:31N 53°27' W 003°01'0 0.0
2016-Aug-21 13:33N 53°27' W 003°01'0 0.0
2016-Aug-21 12:33N 53°27' W 003°01'0 0.0
2016-Aug-21 11:30N 53°27' W 003°01'0 0.0
2016-Aug-21 10:32N 53°27' W 003°01'0 0.0
2016-Aug-21 09:32N 53°27' W 003°01'0 0.0
2016-Aug-21 08:31N 53°27' W 003°01'0 0.0
2016-Aug-21 07:31N 53°27' W 003°01'0 0.0
2016-Aug-21 06:33N 53°27' W 003°01'0 0.0
2016-Aug-21 05:33N 53°27' W 003°01'0 0.5
2016-Aug-21 04:33N 53°27' W 003°01'9 8.9
2016-Aug-21 03:33N 53°31' W 003°14'1817.9
2016-Aug-21 02:33N 53°32' W 003°45'8 0.5
2016-Aug-20 11:33N 53°33' W 003°32'1716.8
2016-Aug-20 10:33N 53°29' W 003°04'2 2.2
2016-Aug-20 09:32N 53°27' W 003°01'0 0.0
2016-Aug-20 08:32N 53°27' W 003°01'0 0.0
2016-Aug-20 07:31N 53°27' W 003°01'0 0.0
2016-Aug-20 06:31N 53°27' W 003°01'0 0.0
2016-Aug-20 05:28N 53°27' W 003°01'0 0.5
2016-Aug-20 04:33N 53°27' W 003°01'8 8.2
2016-Aug-20 03:33N 53°31' W 003°13'1615.6
2016-Aug-20 02:33N 53°31' W 003°39'1515.1
2016-Aug-20 01:33N 53°32' W 004°05'6 0.5
2016-Aug-19 11:32N 53°34' W 003°55'1616.5
2016-Aug-19 10:33N 53°33' W 003°27'1514.6
2016-Aug-19 09:33N 53°28' W 003°04'2 1.8
2016-Aug-19 08:31N 53°27' W 003°01'0 0.0
2016-Aug-19 07:27N 53°27' W 003°01'0 0.0
2016-Aug-19 06:33N 53°27' W 003°01'0 0.0
2016-Aug-19 05:32N 53°27' W 003°01'0 0.0
2016-Aug-19 04:32N 53°27' W 003°01'1 0.6
2016-Aug-19 03:33N 53°27' W 003°01'1312.8
2016-Aug-19 02:33N 53°31' W 003°21'1716.9
2016-Aug-19 01:33N 53°32' W 003°50'2 0.2
2016-Aug-18 11:15N 53°33' W 003°46'1217.3
2016-Aug-18 10:33N 53°32' W 003°26'1615.7
2016-Aug-18 09:33N 53°27' W 003°01'1 0.7
2016-Aug-18 08:31N 53°27' W 003°01'0 0.0
2016-Aug-18 07:27N 53°27' W 003°01'0 0.0
2016-Aug-18 06:33N 53°27' W 003°01'0 0.0
2016-Aug-18 05:32N 53°27' W 003°01'0 0.0
2016-Aug-18 04:32N 53°27' W 003°01'1 0.5
2016-Aug-18 03:33N 53°27' W 003°01'1413.6
2016-Aug-18 02:33N 53°31' W 003°23'1817.5
2016-Aug-18 01:33N 53°32' W 003°52'2617.2
2016-Aug-18 00:03N 53°35' W 004°35'34 2.8
2016-Aug-17 11:33N 53°33' W 003°38'1919.0
2016-Aug-17 10:33N 53°30' W 003°06'5 4.7
2016-Aug-17 09:33N 53°27' W 003°00'1 0.9
2016-Aug-17 08:31N 53°27' W 003°01'0 0.0
2016-Aug-17 07:31N 53°27' W 003°01'0 0.0
2016-Aug-17 06:33N 53°27' W 003°01'0 0.0
2016-Aug-17 05:33N 53°27' W 003°01'0 0.0
2016-Aug-17 04:33N 53°27' W 003°01'1 0.9
2016-Aug-17 03:33N 53°28' W 003°02'1211.9
2016-Aug-17 02:33N 53°31' W 003°21'1716.6
2016-Aug-17 01:33N 53°32' W 003°49'1615.5
2016-Aug-17 00:33N 53°34' W 004°15'23 2.0
2016-Aug-16 13:09N 53°31' W 004°54'1017.0
2016-Aug-16 12:33N 53°33' W 004°38'1917.3
2016-Aug-16 11:26N 53°33' W 004°05'1618.0
2016-Aug-16 10:33N 53°33' W 003°39'1817.5
2016-Aug-16 09:33N 53°32' W 003°09'6 6.5
2016-Aug-16 08:33N 53°27' W 003°01'0 0.0
2016-Aug-16 07:32N 53°27' W 003°01'0 0.0
2016-Aug-16 04:33N 53°27' W 003°01'1 0.6
2016-Aug-16 03:33N 53°27' W 003°01'1211.8
2016-Aug-16 02:33N 53°31' W 003°19'1817.9
2016-Aug-16 01:33N 53°32' W 003°50'1717.4
2016-Aug-16 00:33N 53°35' W 004°18'18 0.8
2016-Aug-15 00:32N 53°32' W 004°49'  

Dump ship's entire track history